createdAt,value
2019-02-17T00:00:54.928Z,14.70
2019-02-17T00:03:24.215Z,15.32
2019-02-17T00:05:53.564Z,15.03
2019-02-17T00:08:22.839Z,15.05
2019-02-17T00:10:52.103Z,14.85
2019-02-17T00:13:21.383Z,15.08
2019-02-17T00:15:50.627Z,15.18
2019-02-17T00:18:19.777Z,15.48
2019-02-17T00:20:49.351Z,14.68
2019-02-17T00:23:18.611Z,15.23
2019-02-17T00:25:47.765Z,14.63
2019-02-17T00:28:17.013Z,15.35
2019-02-17T00:30:46.283Z,14.55
2019-02-17T00:33:15.611Z,15.75
2019-02-17T00:35:44.865Z,16.80
2019-02-17T00:38:14.119Z,15.18
2019-02-17T00:40:43.367Z,14.83
2019-02-17T00:43:12.519Z,14.50
2019-02-17T00:45:41.669Z,16.05
2019-02-17T00:48:10.905Z,15.55
2019-02-17T00:50:40.057Z,17.07
2019-02-17T00:53:09.251Z,15.63
2019-02-17T00:55:38.528Z,16.55
2019-02-17T00:58:07.779Z,16.77
2019-02-17T01:00:37.056Z,15.53
2019-02-17T01:03:06.202Z,16.17
2019-02-17T01:05:35.371Z,16.55
2019-02-17T01:08:04.587Z,16.20
2019-02-17T01:10:33.727Z,16.85
2019-02-17T01:13:02.978Z,17.37
2019-02-17T01:15:32.208Z,16.42
2019-02-17T01:18:01.536Z,16.52
2019-02-17T01:20:30.822Z,16.50
2019-02-17T01:22:59.995Z,16.90
2019-02-17T01:25:29.120Z,18.10
2019-02-17T01:27:58.287Z,16.65
2019-02-17T01:30:27.467Z,18.87
2019-02-17T01:32:56.761Z,17.73
2019-02-17T01:35:25.959Z,18.05
2019-02-17T01:37:55.214Z,18.57
2019-02-17T01:40:24.418Z,18.82
2019-02-17T01:42:53.638Z,18.32
2019-02-17T01:45:23.380Z,19.57
2019-02-17T01:47:52.654Z,17.87
2019-02-17T01:50:21.784Z,17.27
2019-02-17T01:52:51.073Z,18.75
2019-02-17T01:55:20.390Z,16.82
2019-02-17T01:57:49.835Z,18.23
2019-02-17T02:00:19.115Z,17.90
2019-02-17T02:02:48.391Z,17.95
2019-02-17T02:05:17.575Z,16.50
2019-02-17T02:07:46.808Z,18.95
2019-02-17T02:10:15.962Z,17.87
2019-02-17T02:12:45.223Z,17.92
2019-02-17T02:15:14.550Z,16.97
2019-02-17T02:17:43.719Z,18.02
2019-02-17T02:20:12.973Z,16.70
2019-02-17T02:22:42.191Z,17.45
2019-02-17T02:25:11.349Z,18.95
2019-02-17T02:27:40.632Z,16.97
2019-02-17T02:30:11.466Z,17.80
2019-02-17T02:32:40.699Z,17.35
2019-02-17T02:35:09.975Z,19.98
2019-02-17T02:37:39.295Z,18.98
2019-02-17T02:40:08.615Z,19.98
2019-02-17T02:42:37.815Z,18.60
2019-02-17T02:45:08.006Z,19.60
2019-02-17T02:47:37.273Z,18.75
2019-02-17T02:50:07.063Z,18.85
2019-02-17T02:52:39.079Z,18.10
2019-02-17T02:55:08.558Z,16.25
2019-02-17T02:57:37.784Z,17.75
2019-02-17T03:00:09.022Z,19.02
2019-02-17T03:02:38.263Z,16.85
2019-02-17T03:05:07.576Z,18.35
2019-02-17T03:07:36.905Z,17.52
2019-02-17T03:10:06.762Z,18.82
2019-02-17T03:12:35.966Z,17.42
2019-02-17T03:15:05.907Z,18.25
2019-02-17T03:17:35.153Z,19.77
2019-02-17T03:20:04.701Z,18.73
2019-02-17T03:22:33.871Z,19.52
2019-02-17T03:25:03.187Z,18.37
2019-02-17T03:27:32.353Z,18.02
2019-02-17T03:30:04.816Z,19.73
2019-02-17T03:32:32.490Z,18.32
2019-02-17T03:35:01.764Z,19.23
2019-02-17T03:37:30.909Z,20.00
2019-02-17T03:40:00.373Z,19.52
2019-02-17T03:42:29.685Z,18.90
2019-02-17T03:44:58.914Z,19.12
2019-02-17T03:47:28.049Z,18.73
2019-02-17T03:49:57.300Z,19.25
2019-02-17T03:52:26.646Z,19.55
2019-02-17T03:54:55.883Z,18.95
2019-02-17T03:57:25.116Z,19.12
2019-02-17T03:59:54.335Z,19.42
2019-02-17T04:02:23.563Z,19.48
2019-02-17T04:04:52.754Z,19.92
2019-02-17T04:07:21.890Z,18.35
2019-02-17T04:09:51.187Z,19.50
2019-02-17T04:12:20.338Z,20.05
2019-02-17T04:14:49.512Z,20.02
2019-02-17T04:17:18.653Z,19.90
2019-02-17T04:19:47.859Z,21.85
2019-02-17T04:22:17.213Z,19.35
2019-02-17T04:24:46.374Z,18.65
2019-02-17T04:27:15.593Z,18.65
2019-02-17T04:29:44.836Z,22.02
2019-02-17T04:32:14.027Z,20.37
2019-02-17T04:34:43.331Z,19.55
2019-02-17T04:37:12.588Z,19.87
2019-02-17T04:39:41.858Z,21.05
2019-02-17T04:42:11.101Z,21.55
2019-02-17T04:44:40.422Z,20.90
2019-02-17T04:47:09.626Z,19.50
2019-02-17T04:49:38.861Z,21.12
2019-02-17T04:52:08.132Z,20.85
2019-02-17T04:54:37.434Z,21.55
2019-02-17T04:57:06.624Z,21.60
2019-02-17T04:59:35.924Z,20.95
2019-02-17T05:02:05.059Z,20.43
2019-02-17T05:04:34.261Z,21.68
2019-02-17T05:07:03.529Z,20.17
2019-02-17T05:09:32.830Z,22.80
2019-02-17T05:12:02.092Z,20.55
2019-02-17T05:14:31.712Z,20.43
2019-02-17T05:17:00.941Z,20.10
2019-02-17T05:19:30.082Z,20.65
2019-02-17T05:21:59.437Z,20.90
2019-02-17T05:24:28.652Z,20.80
2019-02-17T05:26:57.866Z,21.73
2019-02-17T05:29:26.995Z,21.48
2019-02-17T05:31:56.228Z,21.12
2019-02-17T05:34:25.461Z,23.05
2019-02-17T05:36:54.685Z,22.40
2019-02-17T05:39:23.884Z,22.73
2019-02-17T05:41:53.071Z,21.97
2019-02-17T05:44:22.366Z,22.45
2019-02-17T05:46:51.541Z,21.93
2019-02-17T05:49:20.693Z,19.95
2019-02-17T05:51:49.963Z,22.00
2019-02-17T05:54:19.279Z,21.70
2019-02-17T05:56:48.344Z,21.35
2019-02-17T05:59:17.654Z,22.27
2019-02-17T06:01:46.838Z,21.40
2019-02-17T06:04:16.062Z,22.00
2019-02-17T06:06:46.559Z,20.35
2019-02-17T06:09:15.795Z,22.93
2019-02-17T06:11:45.066Z,21.50
2019-02-17T06:14:14.235Z,22.62
2019-02-17T06:16:43.459Z,23.20
2019-02-17T06:19:12.671Z,22.55
2019-02-17T06:21:41.840Z,20.12
2019-02-17T06:24:11.023Z,22.25
2019-02-17T06:26:40.260Z,21.55
2019-02-17T06:29:09.429Z,23.22
2019-02-17T06:31:38.697Z,21.35
2019-02-17T06:34:07.873Z,22.17
2019-02-17T06:36:37.094Z,22.73
2019-02-17T06:39:07.001Z,21.90
2019-02-17T06:41:36.126Z,21.05
2019-02-17T06:44:05.309Z,21.52
2019-02-17T06:46:42.376Z,21.97
2019-02-17T06:49:11.644Z,22.32
2019-02-17T06:51:40.844Z,21.85
2019-02-17T06:54:10.062Z,22.02
2019-02-17T06:56:57.004Z,21.70
2019-02-17T06:59:26.406Z,22.50
2019-02-17T07:01:55.754Z,22.17
2019-02-17T07:04:39.608Z,22.73
2019-02-17T07:07:10.716Z,21.30
2019-02-17T07:09:39.949Z,22.87
2019-02-17T07:12:09.256Z,21.40
2019-02-17T07:14:38.551Z,21.68
2019-02-17T07:17:08.020Z,21.65
2019-02-17T07:19:37.196Z,20.95
2019-02-17T07:22:06.465Z,22.40
2019-02-17T07:24:35.708Z,22.35
2019-02-17T07:27:04.891Z,20.20
2019-02-17T07:29:34.061Z,22.67
2019-02-17T07:32:03.403Z,22.70
2019-02-17T07:34:32.645Z,21.95
2019-02-17T07:37:01.927Z,21.60
2019-02-17T07:39:31.206Z,20.48
2019-02-17T07:42:00.582Z,21.52
2019-02-17T07:44:29.867Z,21.02
2019-02-17T07:46:59.148Z,20.77
2019-02-17T07:49:28.428Z,20.60
2019-02-17T07:51:57.644Z,20.82
2019-02-17T07:54:26.825Z,21.30
2019-02-17T07:56:57.049Z,20.23
2019-02-17T07:59:26.221Z,20.85
2019-02-17T08:01:55.495Z,20.52
2019-02-17T08:04:24.808Z,21.50
2019-02-17T08:06:53.957Z,20.72
2019-02-17T08:09:24.913Z,20.85
2019-02-17T08:12:18.906Z,20.27
2019-02-17T08:14:50.805Z,20.75
2019-02-17T08:17:23.265Z,19.17
2019-02-17T08:19:55.448Z,21.50
2019-02-17T08:22:31.730Z,19.87
2019-02-17T08:25:06.903Z,20.90
2019-02-17T08:27:40.773Z,20.48
2019-02-17T08:30:11.201Z,20.57
2019-02-17T08:32:40.789Z,19.87
2019-02-17T08:35:17.086Z,21.35
2019-02-17T08:37:52.254Z,20.48
2019-02-17T08:40:21.838Z,19.40
2019-02-17T08:42:53.811Z,20.00
2019-02-17T08:45:23.051Z,21.80
2019-02-17T08:47:52.322Z,20.48
2019-02-17T08:50:23.034Z,22.00
2019-02-17T08:52:52.227Z,19.42
2019-02-17T08:55:21.585Z,21.12
2019-02-17T08:57:50.828Z,20.20
2019-02-17T09:00:20.079Z,19.53
2019-02-17T09:02:49.257Z,19.50
2019-02-17T09:05:18.497Z,18.90
2019-02-17T09:07:48.041Z,20.93
2019-02-17T09:10:17.373Z,18.80
2019-02-17T09:12:46.654Z,19.50
2019-02-17T09:15:15.911Z,18.70
2019-02-17T09:17:45.189Z,18.83
2019-02-17T09:20:14.513Z,18.80
2019-02-17T09:22:43.685Z,19.80
2019-02-17T09:25:12.933Z,19.23
2019-02-17T09:27:42.137Z,18.40
2019-02-17T09:30:13.863Z,18.27
2019-02-17T09:32:43.153Z,18.70
2019-02-17T09:35:12.686Z,17.97
2019-02-17T09:37:41.941Z,17.90
2019-02-17T09:40:11.657Z,18.63
2019-02-17T09:42:40.980Z,17.90
2019-02-17T09:45:11.741Z,18.40
2019-02-17T09:47:41.005Z,17.30
2019-02-17T09:50:11.759Z,17.53
2019-02-17T09:52:41.025Z,18.10
2019-02-17T09:55:10.485Z,18.10
2019-02-17T09:57:39.921Z,16.83
2019-02-17T10:00:10.873Z,18.70
2019-02-17T10:02:40.059Z,17.67
2019-02-17T10:05:09.315Z,17.40
2019-02-17T10:07:38.618Z,19.00
2019-02-17T10:10:10.272Z,18.73
2019-02-17T10:12:39.504Z,19.30
2019-02-17T10:15:10.589Z,18.53
2019-02-17T10:17:39.958Z,18.23
2019-02-17T10:20:10.108Z,18.37
2019-02-17T10:22:39.336Z,19.33
2019-02-17T10:25:08.940Z,18.30
2019-02-17T10:27:38.065Z,19.03
2019-02-17T10:30:08.707Z,19.10
2019-02-17T10:32:39.270Z,16.50
2019-02-17T10:35:08.671Z,16.67
2019-02-17T10:37:38.031Z,17.30
2019-02-17T10:40:09.131Z,16.83
2019-02-17T10:42:38.377Z,17.10
2019-02-17T10:45:08.473Z,16.27
2019-02-17T10:47:37.742Z,16.67
2019-02-17T10:50:07.697Z,17.30
2019-02-17T10:52:37.001Z,16.40
2019-02-17T10:55:06.519Z,16.60
2019-02-17T10:57:35.966Z,16.50
2019-02-17T11:00:07.997Z,16.00
2019-02-17T11:02:46.687Z,16.50
2019-02-17T11:05:08.393Z,15.83
2019-02-17T11:07:37.679Z,16.50
2019-02-17T11:10:07.525Z,15.13
2019-02-17T11:12:36.805Z,16.63
2019-02-17T11:15:07.650Z,17.03
2019-02-17T11:17:36.876Z,15.90
2019-02-17T11:20:06.636Z,14.80
2019-02-17T11:22:35.933Z,16.63
2019-02-17T11:25:05.397Z,15.10
2019-02-17T11:27:34.707Z,15.20
2019-02-17T11:30:05.482Z,14.50
2019-02-17T11:32:35.012Z,14.43
2019-02-17T11:35:04.336Z,13.90
2019-02-17T11:37:33.633Z,14.70
2019-02-17T11:40:02.910Z,14.23
2019-02-17T11:42:32.263Z,13.30
2019-02-17T11:45:01.569Z,13.10
2019-02-17T11:47:31.227Z,13.87
2019-02-17T11:50:00.489Z,13.40
2019-02-17T11:52:29.775Z,13.67
2019-02-17T11:54:59.025Z,13.50
2019-02-17T11:57:28.274Z,14.30
2019-02-17T11:59:58.738Z,13.20
2019-02-17T12:02:29.385Z,13.70
2019-02-17T12:04:58.695Z,12.57
2019-02-17T12:07:28.036Z,13.37
2019-02-17T12:09:57.349Z,13.53
2019-02-17T12:12:26.669Z,12.63
2019-02-17T12:14:56.584Z,12.40
2019-02-17T12:17:27.571Z,13.00
2019-02-17T12:20:03.603Z,11.97
2019-02-17T12:22:39.487Z,13.37
2019-02-17T12:25:19.381Z,12.80
2019-02-17T12:28:03.050Z,12.70
2019-02-17T12:30:40.613Z,13.30
2019-02-17T12:33:18.407Z,13.77
2019-02-17T12:35:43.105Z,11.50
2019-02-17T12:38:12.421Z,12.40
2019-02-17T12:40:41.659Z,11.87
2019-02-17T12:43:11.050Z,12.53
2019-02-17T12:45:40.423Z,12.60
2019-02-17T12:48:09.753Z,11.60
2019-02-17T12:50:39.018Z,11.80
2019-02-17T12:53:10.931Z,12.00
2019-02-17T12:55:39.559Z,12.93
2019-02-17T12:58:08.849Z,12.90
2019-02-17T13:00:38.430Z,12.60
2019-02-17T13:03:07.785Z,13.30
2019-02-17T13:05:38.647Z,13.37
2019-02-17T13:08:07.990Z,12.27
2019-02-17T13:10:37.293Z,11.80
2019-02-17T13:13:06.599Z,12.50
2019-02-17T13:15:37.592Z,11.43
2019-02-17T13:18:06.965Z,11.07
2019-02-17T13:20:36.823Z,10.50
2019-02-17T13:23:06.073Z,11.17
2019-02-17T13:25:35.314Z,11.30
2019-02-17T13:28:04.561Z,11.10
2019-02-17T13:30:33.924Z,11.20
2019-02-17T13:33:04.055Z,11.07
2019-02-17T13:35:34.426Z,11.10
2019-02-17T13:38:03.721Z,10.33
2019-02-17T13:40:33.414Z,10.63
2019-02-17T13:43:04.321Z,9.80
2019-02-17T13:45:33.594Z,10.77
2019-02-17T13:48:04.236Z,11.33
2019-02-17T13:50:33.625Z,11.97
2019-02-17T13:53:11.783Z,10.20
2019-02-17T13:55:38.283Z,11.00
2019-02-17T13:58:07.553Z,10.50
2019-02-17T14:00:36.850Z,9.93
2019-02-17T14:03:06.606Z,11.10
2019-02-17T14:05:35.867Z,10.40
2019-02-17T14:08:05.079Z,10.43
2019-02-17T14:10:36.429Z,10.40
2019-02-17T14:13:05.723Z,9.83
2019-02-17T14:15:34.883Z,10.57
2019-02-17T14:18:04.093Z,9.57
2019-02-17T14:20:33.465Z,10.43
2019-02-17T14:23:02.651Z,10.20
2019-02-17T14:25:31.957Z,10.50
2019-02-17T14:28:01.249Z,8.57
2019-02-17T14:30:30.610Z,9.77
2019-02-17T14:33:01.959Z,9.23
2019-02-17T14:35:31.255Z,8.93
2019-02-17T14:38:00.411Z,9.10
2019-02-17T14:40:30.145Z,9.73
2019-02-17T14:42:59.377Z,8.73
2019-02-17T14:45:28.871Z,8.37
2019-02-17T14:47:58.133Z,9.87
2019-02-17T14:50:27.360Z,8.63
2019-02-17T14:52:56.726Z,8.97
2019-02-17T14:55:27.772Z,8.90
2019-02-17T14:58:04.934Z,8.70
2019-02-17T15:00:29.527Z,8.10
2019-02-17T15:02:58.760Z,8.97
2019-02-17T15:05:27.970Z,9.10
2019-02-17T15:07:57.659Z,7.77
2019-02-17T15:10:26.941Z,9.13
2019-02-17T15:12:56.114Z,8.33
2019-02-17T15:15:26.251Z,9.30
2019-02-17T15:17:55.529Z,8.60
2019-02-17T15:20:24.850Z,15.27
2019-02-17T15:22:53.995Z,10.50
2019-02-17T15:25:23.389Z,8.57
2019-02-17T15:27:52.735Z,8.83
2019-02-17T15:30:21.993Z,8.97
2019-02-17T15:32:51.347Z,7.40
2019-02-17T15:35:22.326Z,8.50
2019-02-17T15:37:51.559Z,9.10
2019-02-17T15:40:20.821Z,7.87
2019-02-17T15:42:50.009Z,8.20
2019-02-17T15:45:19.254Z,8.60
2019-02-17T15:47:48.868Z,8.83
2019-02-17T15:50:18.206Z,9.00
2019-02-17T15:52:47.465Z,8.57
2019-02-17T15:55:16.840Z,7.80
2019-02-17T15:57:49.010Z,8.80
2019-02-17T16:00:18.426Z,8.10
2019-02-17T16:02:48.039Z,8.17
2019-02-17T16:05:18.520Z,8.50
2019-02-17T16:07:48.118Z,8.70
2019-02-17T16:10:20.101Z,7.27
2019-02-17T16:12:49.375Z,8.50
2019-02-17T16:15:48.255Z,8.63
2019-02-17T16:18:38.273Z,7.07
2019-02-17T16:21:17.289Z,7.60
2019-02-17T16:23:54.626Z,8.13
2019-02-17T16:26:53.727Z,7.40
2019-02-17T16:29:49.024Z,8.20
2019-02-17T16:35:33.491Z,8.13
2019-02-17T16:38:09.361Z,7.47
2019-02-17T16:41:03.349Z,7.73
2019-02-17T16:43:46.379Z,7.50
2019-02-17T16:46:19.363Z,6.83
2019-02-17T16:48:48.530Z,7.80
2019-02-17T16:51:17.793Z,7.70
2019-02-17T16:53:47.052Z,8.00
2019-02-17T16:56:16.349Z,8.70
2019-02-17T16:58:55.940Z,9.20
2019-02-17T17:01:58.095Z,7.93
2019-02-17T17:04:36.687Z,9.10
2019-02-17T17:07:41.505Z,8.57
2019-02-17T17:10:34.778Z,8.10
2019-02-17T17:13:13.905Z,8.73
2019-02-17T17:19:24.135Z,8.00
2019-02-17T17:21:53.322Z,8.13
2019-02-17T17:24:22.850Z,8.93
2019-02-17T17:26:52.198Z,8.50
2019-02-17T17:29:24.413Z,8.70
2019-02-17T17:31:53.694Z,8.93
2019-02-17T17:34:24.062Z,8.43
2019-02-17T17:36:53.454Z,7.90
2019-02-17T17:39:23.069Z,8.47
2019-02-17T17:41:52.305Z,8.40
2019-02-17T17:44:21.644Z,8.47
2019-02-17T17:46:50.873Z,8.30
2019-02-17T17:49:20.487Z,9.00
2019-02-17T17:51:49.759Z,7.80
2019-02-17T17:54:19.408Z,7.27
2019-02-17T17:56:49.882Z,7.57
2019-02-17T17:59:19.246Z,8.57
2019-02-17T18:01:48.480Z,9.30
2019-02-17T18:04:17.698Z,7.20
2019-02-17T18:06:46.940Z,8.50
2019-02-17T18:09:16.142Z,7.93
2019-02-17T18:11:45.689Z,8.50
2019-02-17T18:14:14.885Z,8.23
2019-02-17T18:16:44.213Z,7.97
2019-02-17T18:19:13.533Z,7.60
2019-02-17T18:21:45.111Z,8.40
2019-02-17T18:24:14.807Z,9.53
2019-02-17T18:26:44.531Z,8.50
2019-02-17T18:29:13.779Z,9.47
2019-02-17T18:31:43.443Z,8.97
2019-02-17T18:34:12.715Z,9.23
2019-02-17T18:36:42.279Z,8.40
2019-02-17T18:39:11.493Z,7.87
2019-02-17T18:41:40.869Z,7.97
2019-02-17T18:44:10.291Z,9.73
2019-02-17T18:46:39.557Z,8.00
2019-02-17T18:49:08.857Z,7.90
2019-02-17T18:51:38.155Z,8.90
2019-02-17T18:54:07.832Z,9.03
2019-02-17T18:56:37.656Z,8.77
2019-02-17T18:59:07.748Z,8.80
2019-02-17T19:01:37.036Z,8.95
2019-02-17T19:04:06.342Z,8.33
2019-02-17T19:06:35.712Z,9.35
2019-02-17T19:09:06.770Z,8.87
2019-02-17T19:11:36.074Z,8.28
2019-02-17T19:14:05.470Z,8.65
2019-02-17T19:16:34.812Z,10.15
2019-02-17T19:19:04.126Z,9.35
2019-02-17T19:21:33.834Z,9.83
2019-02-17T19:24:03.129Z,9.45
2019-02-17T19:26:32.946Z,10.18
2019-02-17T19:29:02.276Z,8.83
2019-02-17T19:31:31.972Z,8.75
2019-02-17T19:34:01.169Z,9.30
2019-02-17T19:36:30.335Z,8.25
2019-02-17T19:38:59.975Z,8.58
2019-02-17T19:41:29.296Z,8.65
2019-02-17T19:43:58.509Z,8.58
2019-02-17T19:46:27.731Z,8.63
2019-02-17T19:48:56.977Z,7.92
2019-02-17T19:51:26.230Z,8.05
2019-02-17T19:53:55.906Z,7.85
2019-02-17T19:56:25.119Z,8.68
2019-02-17T19:58:54.590Z,9.00
2019-02-17T20:01:23.868Z,8.50
2019-02-17T20:04:01.759Z,8.13
2019-02-17T20:06:31.004Z,8.18
2019-02-17T20:09:00.233Z,7.92
2019-02-17T20:11:29.511Z,7.50
2019-02-17T20:13:58.785Z,7.83
2019-02-17T20:16:28.160Z,7.15
2019-02-17T20:18:57.526Z,7.03
2019-02-17T20:21:26.725Z,8.00
2019-02-17T20:23:56.699Z,7.62
2019-02-17T20:26:26.727Z,7.45
2019-02-17T20:28:57.336Z,8.20
2019-02-17T20:31:27.026Z,7.47
2019-02-17T20:33:56.296Z,7.85
2019-02-17T20:36:25.697Z,8.10
2019-02-17T20:38:55.418Z,7.10
2019-02-17T20:41:24.733Z,6.80
2019-02-17T20:43:54.257Z,7.67
2019-02-17T20:46:23.894Z,8.05
2019-02-17T20:48:53.286Z,7.93
2019-02-17T20:51:22.659Z,8.75
2019-02-17T20:53:51.871Z,7.30
2019-02-17T20:56:22.549Z,8.27
2019-02-17T20:58:51.861Z,8.00
2019-02-17T21:01:21.857Z,7.90
2019-02-17T21:03:51.131Z,8.30
2019-02-17T21:06:20.594Z,7.75
2019-02-17T21:08:51.357Z,7.80
2019-02-17T21:11:20.594Z,8.98
2019-02-17T21:13:49.905Z,7.90
2019-02-17T21:16:20.126Z,8.20
2019-02-17T21:18:49.511Z,8.68
2019-02-17T21:21:18.806Z,8.65
2019-02-17T21:23:48.101Z,8.70
2019-02-17T21:26:17.637Z,8.48
2019-02-17T21:28:47.318Z,8.45
2019-02-17T21:31:16.696Z,7.85
2019-02-17T21:33:48.186Z,8.15
2019-02-17T21:36:23.068Z,7.08
2019-02-17T21:38:48.893Z,7.60
2019-02-17T21:41:18.694Z,8.00
2019-02-17T21:43:47.993Z,8.08
2019-02-17T21:46:17.688Z,8.00
2019-02-17T21:48:47.216Z,9.10
2019-02-17T21:51:16.418Z,8.30
2019-02-17T21:53:45.897Z,8.58
2019-02-17T21:56:15.232Z,8.05
2019-02-17T21:58:44.619Z,8.95
2019-02-17T22:01:14.458Z,8.40
2019-02-17T22:03:43.818Z,9.35
2019-02-17T22:06:13.356Z,8.98
2019-02-17T22:08:42.564Z,9.03
2019-02-17T22:11:12.552Z,8.20
2019-02-17T22:13:41.813Z,10.08
2019-02-17T22:16:11.068Z,9.20
2019-02-17T22:18:40.705Z,8.88
2019-02-17T22:21:09.942Z,8.85
2019-02-17T22:23:41.417Z,8.50
2019-02-17T22:26:10.735Z,9.03
2019-02-17T22:28:39.958Z,8.70
2019-02-17T22:31:09.125Z,9.50
2019-02-17T22:33:38.289Z,10.50
2019-02-17T22:36:07.449Z,9.63
2019-02-17T22:38:36.666Z,8.03
2019-02-17T22:41:05.898Z,9.43
2019-02-17T22:43:35.401Z,9.90
2019-02-17T22:46:04.687Z,9.35
2019-02-17T22:48:34.242Z,9.33
2019-02-17T22:51:03.681Z,11.00
2019-02-17T22:53:43.085Z,9.23
2019-02-17T22:56:03.784Z,9.20
2019-02-17T22:58:32.999Z,9.45
2019-02-17T23:01:05.004Z,10.20
2019-02-17T23:03:34.292Z,8.83
2019-02-17T23:06:03.880Z,10.35
2019-02-17T23:08:33.171Z,9.10
2019-02-17T23:11:02.543Z,8.90
2019-02-17T23:13:33.261Z,8.35
2019-02-17T23:16:02.499Z,8.43
2019-02-17T23:18:31.725Z,9.03
2019-02-17T23:21:00.993Z,9.38
2019-02-17T23:23:30.251Z,11.50
2019-02-17T23:25:59.476Z,10.00
2019-02-17T23:28:28.643Z,10.15
2019-02-17T23:30:57.911Z,9.28
2019-02-17T23:33:27.428Z,10.05
2019-02-17T23:35:56.858Z,9.60
2019-02-17T23:38:26.126Z,9.95
2019-02-17T23:40:55.407Z,10.10
2019-02-17T23:43:27.396Z,9.35
2019-02-17T23:45:56.665Z,10.03
2019-02-17T23:48:25.957Z,9.58
2019-02-17T23:50:55.105Z,9.73
2019-02-17T23:53:27.403Z,9.98
2019-02-17T23:55:56.659Z,9.10
2019-02-17T23:58:26.926Z,10.60
